This is the latest recevied weather packets stored in our database for station/object KD0SBN. If no packets are shown the sender has not sent any weather packets the latest 10 day(s).
| Time | Temp. | Humidity | Pressure | Rain* | Wind** | Luminosity | Snow |
|---|---|---|---|---|---|---|---|
| 1778153018 | 5° C | 61% | 1017.3 hPa | 0 mm | - | - | - |
| 1778152716 | 5.56° C | 61% | 1017.5 hPa | 0 mm | - | - | - |
| 1778152412 | 5.56° C | 61% | 1017.5 hPa | 0 mm | - | - | - |
| 1778152108 | 5.56° C | 61% | 1017.5 hPa | 0 mm | - | - | - |
| 1778151804 | 4.44° C | 64% | 1017.8 hPa | 0 mm | - | - | - |
| 1778151502 | 4.44° C | 66% | 1017.6 hPa | 0 mm | - | - | - |
| 1778151198 | 5° C | 64% | 1017.7 hPa | 0 mm | - | - | - |
| 1778150895 | 4.44° C | 65% | 1017.7 hPa | 0 mm | - | - | - |
| 1778150591 | 4.44° C | 65% | 1017.8 hPa | 0 mm | - | - | - |
| 1778150288 | 4.44° C | 67% | 1018.2 hPa | 0 mm | - | - | - |
| 1778149984 | 5° C | 62% | 1017.9 hPa | 0 mm | - | - | - |
| 1778149681 | 5° C | 63% | 1017.8 hPa | 0 mm | - | - | - |
| 1778149377 | 2.78° C | 70% | 1017.8 hPa | 0 mm | - | - | - |
| 1778149074 | 1.67° C | 80% | 1018 hPa | 0 mm | - | - | - |
| 1778148768 | 0° C | 86% | 1018 hPa | 0 mm | - | - | - |
| 1778148466 | 1.11° C | 86% | 1018.4 hPa | 0 mm | - | - | - |
| 1778148164 | 0° C | 91% | 1018.4 hPa | 0 mm | - | - | - |
| 1778147862 | 0° C | 91% | 1018.4 hPa | 0 mm | - | - | - |
| 1778147558 | 0° C | 91% | 1018.4 hPa | 0 mm | - | - | - |
| 1778147255 | 0° C | 90% | 1018.5 hPa | 0 mm | - | - | - |
| 1778146952 | 0° C | 89% | 1018.6 hPa | 0 mm | - | - | - |
| 1778146649 | 0° C | 90% | 1018.6 hPa | 0 mm | - | - | - |
| 1778146347 | 0° C | 90% | 1018.6 hPa | 0 mm | - | - | - |
| 1778146045 | 0.56° C | 89% | 1019 hPa | 0 mm | - | - | - |
| 1778145741 | 0.56° C | 89% | 1018.9 hPa | 0 mm | - | - | - |
* Rain latest hour (hover to see other rain measurements)
** Current wind speed in m/s (hover to see current wind gust speed)